הכול
Big Spring McMahon-Wrinkle Airport (Big Spring, TX) BPG מזג אוויר
|
Big Spring, TX (KBPG)
שמים בהירים
רוחות קלות |
|
34 °C |
There is no TAF data available at BPG or any nearby airports.
Recent BPG METAR history
| Date | Time (CDT) | Flight Rules | Wind Dir. | Speed | Type | Height AGL (ft) | Visibility | Temp (°C) | Temp (°F) | Dew Point (°C) | Dew Point (°F) | Rel. Humid. | Pressure | Density Altitude | Remarks |
|---|---|---|---|---|---|---|---|---|---|---|---|---|---|---|---|
| 05-ספט | 20:15 | VFR | 90° | 6 kt | 10 miles | 34° | 93° | 14° | 57° | 30% | 29.92 in Hg | 5,327 ft | |||
| 05-ספט | 19:55 | VFR | 100° | 8 kt | 10 miles | 34° | 93° | 14° | 57° | 29% | 29.91 in Hg | 5,337 ft | |||
| 05-ספט | 19:15 | VFR | 90° | 7 kt | 10 miles | 35° | 95° | 14° | 57° | 28% | 29.91 in Hg | 5,457 ft | |||
| 05-ספט | 18:55 | VFR | 100° | 10 kt | 10 miles | 36° | 96° | 14° | 57° | 28% | 29.90 in Hg | 5,587 ft | |||
| 05-ספט | 18:35 | VFR | 90° | 8 kt | 10 miles | 36° | 96° | 15° | 59° | 28% | 29.90 in Hg | 5,587 ft | |||
| 05-ספט | 18:15 | VFR | 90° | 6 kt | 10 miles | 36° | 96° | 15° | 59° | 27% | 29.90 in Hg | 5,587 ft | Wind gusting to 14 KT | ||
| 05-ספט | 17:55 | VFR | 120° | 7 kt | 10 miles | 36° | 96° | 14° | 57° | 27% | 29.90 in Hg | 5,587 ft | |||
| 05-ספט | 17:35 | VFR | 60° | 10 kt | 10 miles | 36° | 96° | 14° | 57° | 27% | 29.90 in Hg | 5,587 ft | |||
| 05-ספט | 17:15 | VFR | 30° | 8 kt | 10 miles | 37° | 98° | 13° | 55° | 24% | 29.90 in Hg | 5,707 ft | Wind gusting to 16 KT | ||
| 05-ספט | 16:55 | VFR | 80° | 7 kt | 10 miles | 37° | 98° | 14° | 57° | 26% | 29.90 in Hg | 5,707 ft | |||
| 05-ספט | 16:35 | VFR | 120° | 9 kt | 10 miles | 37° | 98° | 15° | 59° | 27% | 29.91 in Hg | 5,697 ft | |||
| 05-ספט | 16:15 | VFR | 120° | 6 kt | 10 miles | 37° | 98° | 15° | 59° | 27% | 29.92 in Hg | 5,687 ft | |||
| 05-ספט | 15:55 | VFR | 100° | 9 kt | 10 miles | 36° | 96° | 15° | 59° | 28% | 29.93 in Hg | 5,557 ft | |||
| 05-ספט | 15:15 | VFR | 120° | 7 kt | 10 miles | 36° | 96° | 16° | 60° | 30% | 29.95 in Hg | 5,537 ft | |||
| 05-ספט | 14:55 | VFR | 160° | 6 kt | 10 miles | 36° | 96° | 16° | 60° | 31% | 29.96 in Hg | 5,527 ft | |||
| 05-ספט | 14:15 | VFR | 120° | 9 kt | 10 miles | 35° | 95° | 17° | 62° | 34% | 29.98 in Hg | 5,387 ft | |||
| 05-ספט | 13:55 | VFR | 100° | 7 kt | 10 miles | 35° | 95° | 17° | 62° | 34% | 29.98 in Hg | 5,387 ft | Wind gusting to 20 KT | ||
| 05-ספט | 13:35 | VFR | 90° | 9 kt | 10 miles | 35° | 95° | 17° | 62° | 35% | 29.99 in Hg | 5,377 ft | |||
| 05-ספט | 13:15 | VFR | 160° | 7 kt | 10 miles | 35° | 95° | 18° | 64° | 37% | 30.00 in Hg | 5,367 ft | |||
| 05-ספט | 12:55 | VFR | 210° | 6 kt | 10 miles | 33° | 91° | 19° | 66° | 42% | 30.00 in Hg | 5,127 ft | |||
| 05-ספט | 12:35 | VFR | 210° | 7 kt | 10 miles | 33° | 91° | 19° | 66° | 44% | 30.01 in Hg | 5,117 ft | |||
| 05-ספט | 12:15 | VFR | 240° | 6 kt | 10 miles | 32° | 89° | 19° | 66° | 47% | 30.02 in Hg | 4,987 ft | |||
| 05-ספט | 11:55 | VFR | 220° | 7 kt | 10 miles | 31° | 87° | 19° | 66° | 49% | 30.02 in Hg | 4,867 ft | |||
| 05-ספט | 11:35 | VFR | 210° | 11 kt | 10 miles | 31° | 87° | 19° | 66° | 51% | 30.02 in Hg | 4,867 ft |
כניסה לאתר
| אין תמיכה בדפדפן שלך. שדרג את הדפדפן שלך |
